Time;durP1;ratioP1;P1;durP2;ratioP2;P2;SDS_P1;SDS_P2;PMS_P1;PMS_P2;Temp;Humidity;BMP_temperature;BMP_pressure;BME280_temperature;BME280_humidity;BME280_pressure;Samples;Min_cycle;Max_cycle;Signal;HPM_P1;HPM_P2
2022/08/20 00:01:08;;;;;;;3.63;3.33;;;;;;;20.05;100.00;98981.00;5056042;28;20789;-81
2022/08/20 00:03:38;;;;;;;3.83;3.53;;;;;;;20.00;100.00;98983.78;5054999;28;20247;-82
2022/08/20 00:06:15;;;;;;;3.40;3.20;;;;;;;19.98;100.00;98987.88;5029911;28;20236;-81
2022/08/20 00:08:42;;;;;;;3.70;3.40;;;;;;;19.89;100.00;98976.06;5049909;28;20220;-82
2022/08/20 00:11:13;;;;;;;3.63;3.33;;;;;;;19.90;100.00;98981.22;5044678;28;20684;-82
2022/08/20 00:13:44;;;;;;;3.50;3.23;;;;;;;20.02;100.00;98987.00;5043867;28;20235;-82
2022/08/20 00:16:12;;;;;;;3.70;3.40;;;;;;;20.02;100.00;98980.75;5020051;28;20291;-81
2022/08/20 00:18:40;;;;;;;3.17;2.97;;;;;;;20.12;100.00;98983.31;5037088;28;20233;-82
2022/08/20 00:21:10;;;;;;;3.90;3.60;;;;;;;20.08;100.00;98988.53;5034827;28;20252;-82
2022/08/20 00:23:47;;;;;;;2.90;2.70;;;;;;;20.10;100.00;98985.53;5063695;28;20231;-85
2022/08/20 00:26:14;;;;;;;3.47;3.17;;;;;;;20.10;100.00;98980.91;5030116;28;20252;-80
2022/08/20 00:28:40;;;;;;;3.63;3.33;;;;;;;20.14;100.00;98975.66;5069777;28;20243;-82
2022/08/20 00:31:09;;;;;;;3.10;2.90;;;;;;;20.11;100.00;98987.16;5059996;28;20732;-81
2022/08/20 00:33:37;;;;;;;3.93;3.20;;;;;;;20.10;100.00;98991.78;5047017;28;20314;-81
2022/08/20 00:36:08;;;;;;;3.07;2.87;;;;;;;20.17;100.00;98994.09;5042048;28;20271;-82
2022/08/20 00:38:40;;;;;;;3.20;3.00;;;;;;;20.13;100.00;98988.47;5021590;28;20222;-81
2022/08/20 00:41:12;;;;;;;3.53;3.20;;;;;;;20.05;100.00;98988.34;5023503;28;20253;-81
2022/08/20 00:43:42;;;;;;;3.27;3.07;;;;;;;20.02;100.00;98987.00;5031360;28;20229;-82
2022/08/20 00:46:22;;;;;;;3.60;3.30;;;;;;;19.99;100.00;98979.44;5012794;28;20228;-81
2022/08/20 00:48:57;;;;;;;3.13;2.93;;;;;;;19.99;100.00;98976.72;5004922;28;20232;-82
2022/08/20 00:52:01;;;;;;;3.60;3.30;;;;;;;20.00;100.00;98969.38;5021259;28;20236;-82
2022/08/20 00:54:41;;;;;;;3.10;2.80;;;;;;;19.95;100.00;98956.69;5018303;28;20225;-82
2022/08/20 00:57:33;;;;;;;3.67;3.37;;;;;;;19.93;100.00;98939.84;5052232;28;20229;-83
2022/08/20 01:00:24;;;;;;;3.70;3.40;;;;;;;19.92;100.00;98938.25;5027681;28;20254;-82
2022/08/20 01:02:51;;;;;;;3.70;3.40;;;;;;;19.92;100.00;98921.94;5044005;28;20236;-81
2022/08/20 01:05:18;;;;;;;4.33;3.93;;;;;;;20.14;100.00;98907.69;5043599;28;20228;-81
2022/08/20 01:07:45;;;;;;;4.37;3.97;;;;;;;20.03;100.00;98904.34;5049143;28;20319;-82
2022/08/20 01:10:17;;;;;;;4.47;4.07;;;;;;;19.86;100.00;98903.28;5050656;28;20278;-81
2022/08/20 01:12:46;;;;;;;4.60;4.30;;;;;;;19.66;100.00;98905.22;5047658;28;20278;-82
2022/08/20 01:15:17;;;;;;;5.60;4.03;;;;;;;19.54;100.00;98910.31;5050237;28;20236;-81
2022/08/20 01:17:48;;;;;;;4.80;4.40;;;;;;;19.49;100.00;98893.28;5046182;28;20729;-81
2022/08/20 01:20:19;;;;;;;5.13;4.73;;;;;;;19.46;100.00;98877.56;5049794;28;20243;-82
2022/08/20 01:25:52;;;;;;;5.47;4.47;;;;;;;19.33;100.00;98865.50;5044971;28;20235;-81
2022/08/20 01:28:24;;;;;;;6.03;4.60;;;;;;;19.28;100.00;98879.97;5050788;28;20255;-82
2022/08/20 01:30:51;;;;;;;4.90;4.50;;;;;;;19.28;100.00;98895.44;5021687;28;20652;-82
2022/08/20 01:33:19;;;;;;;4.37;4.00;;;;;;;19.28;100.00;98893.56;5021020;28;20326;-82
2022/08/20 01:35:45;;;;;;;4.40;4.00;;;;;;;19.34;100.00;98897.81;5009694;28;20239;-82
2022/08/20 01:38:12;;;;;;;3.70;3.40;;;;;;;19.34;100.00;98886.13;5052161;28;20322;-82
2022/08/20 01:41:16;;;;;;;3.60;3.30;;;;;;;19.36;100.00;98883.94;5040454;28;20310;-81
2022/08/20 01:43:55;;;;;;;3.83;3.50;;;;;;;19.36;100.00;98878.50;5028873;28;20236;-82
2022/08/20 01:46:29;;;;;;;3.73;3.43;;;;;;;19.40;100.00;98878.72;5039465;28;20230;-81
2022/08/20 01:48:56;;;;;;;3.97;3.67;;;;;;;19.50;100.00;98870.47;5032512;28;20233;-82
2022/08/20 01:51:26;;;;;;;3.40;3.10;;;;;;;19.42;100.00;98868.34;5029659;28;20326;-81
2022/08/20 01:53:55;;;;;;;3.43;3.13;;;;;;;19.44;100.00;98866.19;5026404;28;20247;-82
2022/08/20 01:56:25;;;;;;;3.00;2.80;;;;;;;19.49;100.00;98858.78;5029680;28;20238;-81
2022/08/20 01:58:53;;;;;;;2.57;2.47;;;;;;;19.57;100.00;98854.56;5005528;28;20316;-82
2022/08/20 02:01:33;;;;;;;2.73;2.53;;;;;;;19.65;100.00;98862.03;5028967;28;20247;-80
2022/08/20 02:04:13;;;;;;;2.90;2.70;;;;;;;19.59;100.00;98868.69;5015753;28;20324;-82
2022/08/20 02:06:43;;;;;;;2.50;2.30;;;;;;;19.73;100.00;98877.69;5015111;28;20233;-82
2022/08/20 02:09:26;;;;;;;2.70;2.50;;;;;;;19.64;100.00;98869.38;5035987;28;20674;-82
2022/08/20 02:11:53;;;;;;;2.30;2.10;;;;;;;19.85;100.00;98872.56;5033078;28;20264;-82
2022/08/20 02:14:20;;;;;;;2.50;2.30;;;;;;;19.90;100.00;98874.41;5032097;28;20321;-82
2022/08/20 02:16:47;;;;;;;2.57;2.37;;;;;;;19.83;100.00;98874.78;5028669;28;20232;-83
2022/08/20 02:19:31;;;;;;;2.23;2.03;;;;;;;19.82;100.00;98866.94;5025291;28;20270;-82
2022/08/20 02:22:02;;;;;;;2.57;2.37;;;;;;;19.75;100.00;98864.59;5015547;28;20235;-81
2022/08/20 02:24:29;;;;;;;2.63;2.10;;;;;;;19.77;100.00;98856.97;5019069;28;20712;-82
2022/08/20 02:26:56;;;;;;;2.93;2.00;;;;;;;19.77;100.00;98860.47;5045239;28;20250;-82
2022/08/20 02:29:23;;;;;;;1.93;1.83;;;;;;;19.80;100.00;98859.06;5063150;28;20229;-82
2022/08/20 02:31:49;;;;;;;2.07;1.97;;;;;;;19.76;100.00;98861.59;5046513;28;20234;-82
2022/08/20 02:34:36;;;;;;;2.20;2.10;;;;;;;19.79;100.00;98871.84;5023160;28;20262;-80
2022/08/20 02:37:05;;;;;;;2.00;1.80;;;;;;;19.80;100.00;98867.22;5044947;28;20234;-82
2022/08/20 02:39:32;;;;;;;1.83;1.70;;;;;;;19.78;100.00;98853.91;5032365;28;20701;-81
2022/08/20 02:42:01;;;;;;;1.90;1.80;;;;;;;19.80;100.00;98837.31;5011579;28;20280;-82
2022/08/20 02:44:29;;;;;;;1.70;1.60;;;;;;;19.79;100.00;98847.38;5012824;28;20716;-81
2022/08/20 02:46:55;;;;;;;2.00;1.90;;;;;;;19.95;100.00;98855.28;5004734;28;20322;-83
2022/08/20 02:49:22;;;;;;;1.70;1.60;;;;;;;19.93;100.00;98854.75;5025839;28;20233;-82
2022/08/20 02:51:49;;;;;;;1.97;1.53;;;;;;;19.82;100.00;98865.03;5049372;28;20320;-83
2022/08/20 02:54:16;;;;;;;1.20;1.20;;;;;;;19.80;100.00;98853.63;5051568;28;20237;-83
2022/08/20 02:56:43;;;;;;;1.57;1.47;;;;;;;19.97;100.00;98867.44;5033745;28;20305;-82
2022/08/20 02:59:10;;;;;;;1.30;1.20;;;;;;;20.04;100.00;98870.59;5035555;28;20248;-83
2022/08/20 03:01:44;;;;;;;1.00;1.00;;;;;;;20.02;100.00;98872.00;5051439;28;20238;-81
2022/08/20 03:04:11;;;;;;;1.00;1.00;;;;;;;20.02;100.00;98866.56;5036435;28;20231;-81
2022/08/20 03:06:37;;;;;;;1.07;1.07;;;;;;;20.06;100.00;98868.38;5022125;28;20232;-82
2022/08/20 03:09:05;;;;;;;1.00;1.00;;;;;;;20.07;100.00;98866.47;5030346;28;20319;-82
2022/08/20 03:11:32;;;;;;;1.20;1.10;;;;;;;20.12;100.00;98875.34;5031260;28;20234;-83
2022/08/20 03:13:59;;;;;;;1.13;1.00;;;;;;;20.06;100.00;98871.09;5019341;28;20278;-82
2022/08/20 03:16:26;;;;;;;1.47;0.93;;;;;;;20.06;100.00;98867.59;5051399;28;20217;-83
2022/08/20 03:18:54;;;;;;;1.13;1.10;;;;;;;19.96;100.00;98873.22;5033182;28;20233;-81
2022/08/20 03:21:20;;;;;;;1.10;1.00;;;;;;;19.97;100.00;98875.59;5033538;28;20233;-82
2022/08/20 03:23:47;;;;;;;0.90;0.90;;;;;;;19.97;100.00;98862.00;5032901;28;20250;-82
2022/08/20 03:26:15;;;;;;;0.80;0.80;;;;;;;20.01;100.00;98873.13;5031514;28;20265;-81
2022/08/20 03:28:42;;;;;;;1.57;1.00;;;;;;;20.02;100.00;98872.00;5019391;28;20230;-83
2022/08/20 03:31:09;;;;;;;1.10;1.00;;;;;;;19.94;100.00;98875.41;5023731;28;20228;-82
2022/08/20 03:33:41;;;;;;;0.90;0.90;;;;;;;19.93;100.00;98884.66;5050246;28;20251;-83
2022/08/20 03:36:21;;;;;;;1.00;0.90;;;;;;;19.87;100.00;98886.69;5054221;28;20237;-82
2022/08/20 03:39:00;;;;;;;1.10;1.10;;;;;;;19.84;100.00;98902.75;5038534;28;20245;-82
2022/08/20 03:41:27;;;;;;;0.97;0.97;;;;;;;19.83;100.00;98904.66;5027159;28;20254;-82
2022/08/20 03:43:54;;;;;;;0.90;0.90;;;;;;;19.82;100.00;98907.69;5018950;28;20223;-83
2022/08/20 03:46:21;;;;;;;0.90;0.90;;;;;;;19.82;100.00;98904.97;5058959;28;20247;-81
2022/08/20 03:48:50;;;;;;;1.00;1.00;;;;;;;19.84;100.00;98900.84;5035956;28;20240;-82
2022/08/20 03:51:28;;;;;;;0.87;0.87;;;;;;;19.85;100.00;98890.78;5027477;28;20237;-82
2022/08/20 03:53:54;;;;;;;0.97;0.97;;;;;;;19.88;100.00;98890.19;5034422;28;20228;-82
2022/08/20 03:56:21;;;;;;;1.00;0.90;;;;;;;19.86;100.00;98895.13;5017551;28;20240;-81
2022/08/20 03:58:48;;;;;;;0.73;0.73;;;;;;;19.83;100.00;98891.06;5033182;28;20760;-84
2022/08/20 04:01:14;;;;;;;0.97;0.90;;;;;;;19.83;100.00;98888.34;5033298;28;20231;-83
2022/08/20 04:04:01;;;;;;;0.90;0.90;;;;;;;19.81;100.00;98893.31;5044272;28;20243;-81
2022/08/20 04:06:28;;;;;;;0.80;0.73;;;;;;;19.79;100.00;98892.78;5041726;28;20276;-83
2022/08/20 04:08:55;;;;;;;1.60;0.90;;;;;;;19.76;100.00;98896.91;5040433;28;20237;-82
2022/08/20 04:11:23;;;;;;;1.10;1.00;;;;;;;19.67;100.00;98897.88;5012663;28;20310;-82
2022/08/20 04:13:49;;;;;;;0.77;0.77;;;;;;;19.64;100.00;98912.06;5052543;28;20327;-84
2022/08/20 04:16:16;;;;;;;0.90;0.90;;;;;;;19.63;100.00;98915.88;5029674;28;20296;-84
2022/08/20 04:18:46;;;;;;;0.80;0.80;;;;;;;19.60;100.00;98919.19;5028988;28;20699;-84
2022/08/20 04:21:29;;;;;;;1.27;0.77;;;;;;;19.62;100.00;98916.97;5029245;28;20240;-83
2022/08/20 04:23:59;;;;;;;1.13;0.97;;;;;;;19.67;100.00;98919.63;5038106;28;20244;-81
2022/08/20 04:26:26;;;;;;;0.87;0.77;;;;;;;19.66;100.00;98916.09;5035653;28;20238;-82
2022/08/20 04:28:54;;;;;;;0.80;0.80;;;;;;;19.65;100.00;98919.91;5031840;28;20721;-84
2022/08/20 04:31:23;;;;;;;0.90;0.90;;;;;;;19.66;100.00;98912.56;5056063;28;20234;-82
2022/08/20 04:33:51;;;;;;;1.10;0.80;;;;;;;19.67;100.00;98916.91;5018544;28;20238;-82
2022/08/20 04:36:18;;;;;;;1.70;0.70;;;;;;;19.77;100.00;98914.03;5032996;28;20230;-82
2022/08/20 04:38:45;;;;;;;1.30;0.70;;;;;;;19.79;100.00;98909.91;5055921;28;20227;-81
2022/08/20 04:41:20;;;;;;;0.70;0.70;;;;;;;19.99;100.00;98907.94;5049929;28;20253;-81
2022/08/20 04:43:50;;;;;;;0.83;0.70;;;;;;;19.96;100.00;98905.84;5047678;28;20233;-82
2022/08/20 04:46:18;;;;;;;0.80;0.70;;;;;;;19.96;100.00;98919.44;5046408;28;20246;-82
2022/08/20 04:48:44;;;;;;;1.17;0.70;;;;;;;19.90;100.00;98921.41;5048274;28;20285;-82
2022/08/20 04:51:16;;;;;;;0.80;0.80;;;;;;;19.86;100.00;98933.19;5049413;28;20217;-82
2022/08/20 04:53:44;;;;;;;0.60;0.60;;;;;;;19.88;100.00;98934.50;5064687;28;20239;-82
2022/08/20 04:56:22;;;;;;;0.67;0.67;;;;;;;19.88;100.00;98934.50;5048941;28;20227;-82
2022/08/20 04:58:51;;;;;;;0.67;0.67;;;;;;;19.97;100.00;98940.84;5048582;28;20233;-82
2022/08/20 05:01:18;;;;;;;0.80;0.80;;;;;;;20.10;100.00;98937.41;5030556;28;20228;-83
2022/08/20 05:03:46;;;;;;;0.70;0.70;;;;;;;20.20;100.00;98937.19;5046718;28;20303;-82
2022/08/20 05:06:14;;;;;;;0.80;0.80;;;;;;;20.32;100.00;98938.66;5048877;28;20303;-83
2022/08/20 05:08:41;;;;;;;0.67;0.67;;;;;;;20.38;100.00;98943.72;5029994;28;20266;-83
2022/08/20 05:11:08;;;;;;;0.70;0.70;;;;;;;20.49;100.00;98936.16;5049655;28;20323;-83
2022/08/20 05:13:55;;;;;;;2.10;0.97;;;;;;;20.64;100.00;98936.69;5049928;28;20230;-83
2022/08/20 05:16:23;;;;;;;0.90;0.90;;;;;;;20.69;100.00;98916.72;5047143;28;20322;-83
2022/08/20 05:18:50;;;;;;;0.80;0.80;;;;;;;21.01;100.00;98926.69;5053161;28;20256;-84
2022/08/20 05:21:19;;;;;;;0.77;0.77;;;;;;;21.15;100.00;98922.06;5031233;28;20232;-82
2022/08/20 05:23:46;;;;;;;0.60;0.60;;;;;;;21.42;100.00;98935.59;5054296;28;20250;-81
2022/08/20 05:26:14;;;;;;;0.65;0.65;;;;;;;21.68;100.00;98937.75;5037053;28;20247;-82
2022/08/20 05:28:42;;;;;;;0.75;0.70;;;;;;;21.89;100.00;98938.88;5060557;28;20226;-82
2022/08/20 05:31:28;;;;;;;0.70;0.70;;;;;;;21.92;100.00;98933.63;5056363;28;20754;-82
2022/08/20 05:34:08;;;;;;;0.77;0.77;;;;;;;22.01;100.00;98927.44;5018658;28;20249;-82
2022/08/20 05:36:43;;;;;;;0.80;0.80;;;;;;;21.99;100.00;98933.19;5060189;28;20319;-83
2022/08/20 05:39:10;;;;;;;0.60;0.60;;;;;;;21.85;100.00;98948.78;5040023;28;20223;-83
2022/08/20 05:41:37;;;;;;;1.00;0.63;;;;;;;21.75;100.00;98951.75;5063158;28;20318;-82
2022/08/20 05:44:08;;;;;;;0.70;0.70;;;;;;;21.69;100.00;98966.63;5049186;28;20365;-83
2022/08/20 05:46:40;;;;;;;0.70;0.70;;;;;;;21.63;100.00;98965.94;5049946;28;20229;-82
2022/08/20 05:49:12;;;;;;;0.80;0.70;;;;;;;21.49;100.00;98962.44;5020782;28;20237;-82
2022/08/20 05:51:39;;;;;;;0.80;0.80;;;;;;;21.41;100.00;98966.72;5043074;28;20248;-82
2022/08/20 05:54:06;;;;;;;1.27;0.80;;;;;;;21.35;100.00;98961.69;5027009;28;20245;-83
2022/08/20 05:56:33;;;;;;;0.77;0.70;;;;;;;21.33;100.00;98953.00;5026772;28;20259;-82
2022/08/20 05:59:03;;;;;;;0.93;0.90;;;;;;;21.40;100.00;98959.66;5046606;28;20239;-81
2022/08/20 06:01:31;;;;;;;0.98;0.70;;;;;;;21.42;100.00;98957.41;5027889;28;20226;-82
2022/08/20 06:06:44;;;;;;;0.82;0.82;;;;;;;21.50;100.00;98964.88;5026519;28;20222;-82
2022/08/20 06:09:15;;;;;;;1.08;0.98;;;;;;;21.57;100.00;98959.00;5013534;28;20736;-82
2022/08/20 06:11:41;;;;;;;1.83;0.90;;;;;;;21.64;100.00;98962.09;5017624;28;20840;-82
2022/08/20 06:14:08;;;;;;;0.70;0.70;;;;;;;21.69;100.00;98963.91;5006845;28;20709;-82
2022/08/20 06:16:35;;;;;;;1.17;0.93;;;;;;;21.75;100.00;98965.38;5015464;28;20794;-83
2022/08/20 06:19:04;;;;;;;1.30;0.82;;;;;;;21.81;100.00;98975.06;5000302;28;20588;-82
2022/08/20 06:21:30;;;;;;;0.90;0.70;;;;;;;21.82;100.00;98984.88;5028500;28;20296;-83
2022/08/20 06:23:57;;;;;;;0.77;0.70;;;;;;;21.75;100.00;98987.19;5025585;28;20239;-82
2022/08/20 06:26:26;;;;;;;1.27;0.80;;;;;;;21.73;100.00;98990.25;5038664;28;20241;-82
2022/08/20 06:28:56;;;;;;;0.97;0.90;;;;;;;21.79;100.00;98988.22;5048218;28;20218;-83
2022/08/20 06:31:23;;;;;;;0.70;0.70;;;;;;;21.85;100.00;98989.69;5038119;28;20244;-82
2022/08/20 06:33:49;;;;;;;1.20;0.70;;;;;;;21.87;100.00;98980.09;5019411;28;20326;-82
2022/08/20 06:36:16;;;;;;;1.15;0.90;;;;;;;21.90;100.00;98986.84;5024076;28;20322;-82
2022/08/20 06:38:45;;;;;;;1.20;0.70;;;;;;;22.02;100.00;98983.59;5027590;28;20222;-83
2022/08/20 06:41:12;;;;;;;0.75;0.75;;;;;;;22.13;100.00;98982.22;5051873;28;20233;-84
2022/08/20 06:43:39;;;;;;;0.98;0.77;;;;;;;22.27;100.00;98989.22;5019772;28;20253;-82
2022/08/20 06:46:07;;;;;;;0.80;0.80;;;;;;;22.38;100.00;98989.78;5037394;28;20317;-82
2022/08/20 06:48:33;;;;;;;0.82;0.77;;;;;;;22.42;100.00;98985.31;5037407;28;20221;-82
2022/08/20 06:51:00;;;;;;;0.95;0.90;;;;;;;22.65;100.00;98984.13;5052402;28;20319;-81
2022/08/20 06:53:27;;;;;;;1.67;0.90;;;;;;;22.60;100.00;98984.28;5041489;28;20715;-82
2022/08/20 06:55:57;;;;;;;0.85;0.80;;;;;;;22.62;100.00;98979.31;5051924;28;20226;-84
2022/08/20 06:58:25;;;;;;;0.70;0.70;;;;;;;22.56;100.00;98980.56;5036793;28;20628;-82
2022/08/20 07:01:08;;;;;;;1.95;0.90;;;;;;;22.62;100.00;98984.78;5040966;28;20225;-82
2022/08/20 07:03:38;;;;;;;1.20;0.80;;;;;;;22.72;100.00;98981.78;5047789;28;20238;-82
2022/08/20 07:06:08;;;;;;;0.77;0.77;;;;;;;22.91;100.00;98987.00;5030756;28;20249;-82
2022/08/20 07:08:35;;;;;;;1.58;0.80;;;;;;;22.99;99.96;98993.63;5030856;28;20221;-82
2022/08/20 07:11:02;;;;;;;1.42;0.80;;;;;;;23.05;99.10;98990.41;5042316;28;20226;-81
2022/08/20 07:13:29;;;;;;;1.05;0.95;;;;;;;23.32;95.42;98991.31;5047465;28;20771;-81
2022/08/20 07:15:56;;;;;;;0.70;0.70;;;;;;;23.31;94.02;98989.69;5031346;28;20287;-84
2022/08/20 07:18:23;;;;;;;1.02;0.93;;;;;;;23.58;92.64;98992.19;5044746;28;20254;-83
2022/08/20 07:20:55;;;;;;;0.75;0.75;;;;;;;23.55;88.36;98995.56;5036885;28;20249;-83
2022/08/20 07:23:24;;;;;;;1.25;0.75;;;;;;;24.07;87.45;98993.66;5050329;28;20317;-82
2022/08/20 07:25:51;;;;;;;0.98;0.90;;;;;;;24.25;84.58;98989.78;5046753;28;20240;-83
2022/08/20 07:28:20;;;;;;;1.10;0.68;;;;;;;24.68;83.06;98986.94;5035664;28;20297;-84
2022/08/20 07:33:42;;;;;;;2.58;0.88;;;;;;;25.23;71.98;98986.06;5039726;28;20246;-83
2022/08/20 07:36:11;;;;;;;0.75;0.70;;;;;;;25.32;74.97;98995.84;5008980;28;20594;-84
2022/08/20 07:38:38;;;;;;;0.88;0.88;;;;;;;25.57;74.50;98996.06;5049553;28;20235;-84
2022/08/20 07:41:07;;;;;;;1.00;0.88;;;;;;;25.58;69.81;98987.47;5047290;28;20308;-84
2022/08/20 07:43:34;;;;;;;0.80;0.80;;;;;;;25.76;69.33;98996.38;5049073;28;20235;-83
2022/08/20 07:46:06;;;;;;;0.80;0.80;;;;;;;25.99;67.45;98992.13;5029845;28;20329;-81
2022/08/20 07:48:38;;;;;;;1.65;0.90;;;;;;;25.96;65.90;99001.06;5042626;28;20241;-82
2022/08/20 07:51:06;;;;;;;0.77;0.70;;;;;;;26.04;66.08;98996.63;5025478;28;20229;-84
2022/08/20 07:53:35;;;;;;;1.33;0.80;;;;;;;25.92;65.28;98996.56;5032894;28;20788;-83
2022/08/20 07:56:07;;;;;;;0.60;0.60;;;;;;;26.00;66.08;99003.91;5048716;28;20251;-83
2022/08/20 07:58:35;;;;;;;0.68;0.68;;;;;;;25.84;64.57;99003.75;5031613;28;20225;-84
2022/08/20 08:01:04;;;;;;;1.30;0.70;;;;;;;25.85;65.40;99003.38;5052165;28;20251;-84
2022/08/20 08:03:31;;;;;;;0.60;0.60;;;;;;;25.81;65.97;99015.38;5049079;28;20279;-84
2022/08/20 08:06:18;;;;;;;0.50;0.50;;;;;;;25.72;66.79;99003.66;5022269;28;20240;-81
2022/08/20 08:09:16;;;;;;;0.50;0.50;;;;;;;25.64;67.64;99015.50;5031193;28;20230;-83
2022/08/20 08:11:48;;;;;;;0.90;0.60;;;;;;;25.58;65.97;99008.59;5038133;28;20264;-83
2022/08/20 08:14:20;;;;;;;0.70;0.70;;;;;;;25.71;64.46;99008.34;5010291;28;20290;-82
2022/08/20 08:16:46;;;;;;;0.75;0.60;;;;;;;25.58;65.69;98998.44;5027735;28;20234;-84
2022/08/20 08:19:14;;;;;;;0.47;0.47;;;;;;;25.64;67.22;99007.28;5006232;28;20233;-81
2022/08/20 08:21:42;;;;;;;0.80;0.50;;;;;;;25.67;66.67;99004.66;5025212;28;20238;-84
2022/08/20 08:24:10;;;;;;;0.50;0.45;;;;;;;25.46;66.43;99022.22;5033571;28;20333;-83
2022/08/20 08:26:39;;;;;;;0.85;0.60;;;;;;;25.56;65.82;99011.69;5024314;28;20248;-83
2022/08/20 08:29:06;;;;;;;0.43;0.43;;;;;;;25.62;65.28;99021.31;5022524;28;20339;-83
2022/08/20 08:31:33;;;;;;;0.70;0.70;;;;;;;25.72;66.13;99018.19;5046648;28;20234;-83
2022/08/20 08:34:00;;;;;;;0.80;0.50;;;;;;;25.83;64.90;99018.59;5045730;28;20709;-84
2022/08/20 08:36:27;;;;;;;0.52;0.52;;;;;;;25.66;63.80;99022.25;5047950;28;20251;-82
2022/08/20 08:38:55;;;;;;;0.60;0.60;;;;;;;25.72;64.10;99018.19;5048675;28;20315;-82
2022/08/20 08:41:32;;;;;;;0.50;0.50;;;;;;;25.90;63.52;99024.34;5027082;28;20233;-83
2022/08/20 08:44:11;;;;;;;1.95;0.73;;;;;;;26.05;63.21;99018.25;4994458;28;20241;-84
2022/08/20 08:46:41;;;;;;;0.63;0.60;;;;;;;26.06;62.71;99010.81;5010341;28;20226;-81
2022/08/20 08:49:12;;;;;;;0.80;0.68;;;;;;;26.27;62.42;99006.91;5012159;28;20314;-84
2022/08/20 08:51:47;;;;;;;0.70;0.70;;;;;;;26.50;60.58;98999.09;5013063;28;20237;-81
2022/08/20 08:54:25;;;;;;;0.50;0.50;;;;;;;26.67;60.72;98998.91;5012094;28;20241;-84
2022/08/20 08:56:52;;;;;;;1.27;0.80;;;;;;;26.67;59.36;99003.63;5008037;28;20225;-83
2022/08/20 08:59:20;;;;;;;0.60;0.60;;;;;;;26.74;58.15;99001.09;5029729;28;20264;-82
2022/08/20 09:01:55;;;;;;;0.70;0.70;;;;;;;26.81;56.94;98998.59;5028498;28;20225;-82
2022/08/20 09:04:30;;;;;;;0.60;0.60;;;;;;;26.85;58.15;99002.25;5013666;28;20237;-82
2022/08/20 09:06:58;;;;;;;0.68;0.50;;;;;;;27.05;57.60;99001.41;5046514;28;20242;-81
2022/08/20 09:09:29;;;;;;;1.10;0.70;;;;;;;26.99;56.87;98997.28;5010406;28;20240;-83
2022/08/20 09:12:11;;;;;;;0.60;0.60;;;;;;;27.32;56.47;99013.66;5050372;28;20223;-83
2022/08/20 09:14:38;;;;;;;0.73;0.60;;;;;;;27.28;54.60;99000.94;5050949;28;20229;-84
2022/08/20 09:17:05;;;;;;;2.50;0.70;;;;;;;27.34;55.99;98994.84;5042256;28;20311;-83
2022/08/20 09:19:31;;;;;;;0.57;0.57;;;;;;;27.35;54.94;98990.94;5047824;28;20959;-82
2022/08/20 09:21:58;;;;;;;0.50;0.50;;;;;;;27.17;55.19;98997.84;5047988;28;20806;-83
2022/08/20 09:24:25;;;;;;;0.50;0.50;;;;;;;27.10;55.10;98992.94;5016385;28;20687;-83
2022/08/20 09:26:51;;;;;;;1.05;0.57;;;;;;;27.01;56.04;99005.19;5048798;28;20324;-83
2022/08/20 09:29:18;;;;;;;0.52;0.50;;;;;;;27.12;55.25;99007.13;5020437;28;20320;-83
2022/08/20 09:31:46;;;;;;;1.05;0.57;;;;;;;26.98;55.38;99001.16;5034823;28;20595;-81
2022/08/20 09:34:13;;;;;;;0.57;0.57;;;;;;;26.75;55.34;99002.69;5049210;28;20270;-82
2022/08/20 09:36:40;;;;;;;0.50;0.50;;;;;;;26.85;55.77;99015.19;5028140;28;20231;-83
2022/08/20 09:39:08;;;;;;;0.47;0.47;;;;;;;26.89;56.30;98996.91;5025156;28;20770;-83
2022/08/20 09:41:35;;;;;;;0.50;0.50;;;;;;;26.86;56.94;98997.59;5045666;28;20253;-83
2022/08/20 09:44:02;;;;;;;0.85;0.50;;;;;;;26.90;55.62;99001.25;5048453;28;20520;-82
2022/08/20 09:46:29;;;;;;;0.55;0.55;;;;;;;26.80;55.10;98994.25;5054826;28;20314;-82
2022/08/20 09:48:55;;;;;;;0.60;0.60;;;;;;;26.82;55.07;98989.22;5050455;28;20252;-82
2022/08/20 09:51:24;;;;;;;0.68;0.65;;;;;;;26.83;55.12;98999.03;5059043;28;20226;-83
2022/08/20 09:53:51;;;;;;;0.77;0.70;;;;;;;26.82;55.59;99002.97;5033661;28;20298;-85
2022/08/20 09:56:18;;;;;;;1.25;0.60;;;;;;;27.33;53.26;98989.69;5037627;28;20319;-83
2022/08/20 09:58:49;;;;;;;0.40;0.40;;;;;;;27.71;51.96;98994.81;5038238;28;20331;-84
2022/08/20 10:01:18;;;;;;;0.60;0.60;;;;;;;28.06;50.17;98997.78;5061965;28;20274;-82
2022/08/20 10:03:48;;;;;;;0.70;0.68;;;;;;;27.99;50.34;98984.66;5032840;28;20226;-83
2022/08/20 10:06:18;;;;;;;0.50;0.50;;;;;;;27.92;49.97;98984.44;5056312;28;20638;-84
2022/08/20 10:08:48;;;;;;;1.15;0.60;;;;;;;27.70;50.05;98983.00;5037295;28;20287;-83
2022/08/20 10:11:16;;;;;;;0.60;0.60;;;;;;;28.17;49.60;98985.16;5039780;28;20304;-84
2022/08/20 10:13:43;;;;;;;0.57;0.57;;;;;;;28.02;50.14;98987.50;5043181;28;20236;-83
2022/08/20 10:16:11;;;;;;;0.50;0.50;;;;;;;27.78;49.38;98971.06;5046022;28;20317;-82
2022/08/20 10:18:38;;;;;;;0.50;0.50;;;;;;;28.19;48.75;98955.31;5032843;28;20771;-83
2022/08/20 10:21:09;;;;;;;0.60;0.60;;;;;;;27.88;49.38;98959.56;5046325;28;20759;-82
2022/08/20 10:23:36;;;;;;;0.80;0.70;;;;;;;28.14;49.21;98958.31;5030786;28;20233;-84
2022/08/20 10:26:03;;;;;;;1.50;0.63;;;;;;;28.14;49.55;98961.88;5042022;28;20316;-82
2022/08/20 10:28:29;;;;;;;0.50;0.50;;;;;;;28.01;49.05;98960.31;5054179;28;20248;-79
2022/08/20 10:30:56;;;;;;;0.60;0.60;;;;;;;28.11;49.66;98954.31;5052274;28;20233;-86
2022/08/20 10:33:23;;;;;;;0.95;0.95;;;;;;;28.28;48.88;98964.22;5056678;28;20248;-81
2022/08/20 10:35:49;;;;;;;0.90;0.90;;;;;;;28.10;47.82;98962.91;5050353;28;20223;-81
2022/08/20 10:38:20;;;;;;;2.35;1.00;;;;;;;27.96;48.46;98966.06;5057490;28;20236;-79
2022/08/20 10:40:46;;;;;;;0.70;0.70;;;;;;;27.89;49.61;98961.16;5061070;28;21287;-81
2022/08/20 10:43:18;;;;;;;0.80;0.80;;;;;;;28.36;48.75;98960.50;5057203;28;20637;-81
2022/08/20 10:45:44;;;;;;;0.98;0.98;;;;;;;28.71;46.46;98949.63;5056586;28;20256;-81
2022/08/20 10:48:11;;;;;;;1.13;1.13;;;;;;;29.06;46.10;98952.47;5049161;28;20732;-79
2022/08/20 10:50:38;;;;;;;1.23;0.80;;;;;;;28.94;45.85;98949.78;5049720;28;20234;-79
2022/08/20 10:53:04;;;;;;;1.10;0.85;;;;;;;29.48;45.74;98960.94;5049753;28;20240;-79
2022/08/20 10:55:31;;;;;;;1.00;1.00;;;;;;;29.47;44.90;98946.34;5065190;28;20586;-82
2022/08/20 10:57:57;;;;;;;1.02;1.02;;;;;;;29.44;44.54;98946.28;5049558;28;20320;-81
2022/08/20 11:00:24;;;;;;;1.00;1.00;;;;;;;29.74;44.11;98936.25;5041110;28;20326;-81
2022/08/20 11:02:51;;;;;;;0.90;0.88;;;;;;;29.89;43.42;98929.09;5024800;28;20245;-82
2022/08/20 11:05:17;;;;;;;2.25;1.00;;;;;;;30.05;43.30;98936.13;5034670;28;20813;-83
2022/08/20 11:07:44;;;;;;;1.17;1.00;;;;;;;30.28;43.17;98927.91;5014388;28;20317;-84
2022/08/20 11:10:26;;;;;;;1.00;1.00;;;;;;;30.52;41.45;98933.06;5017398;28;20244;-80
2022/08/20 11:12:52;;;;;;;1.00;1.00;;;;;;;30.56;41.86;98938.69;5032690;28;20229;-82
2022/08/20 11:15:19;;;;;;;1.20;1.10;;;;;;;30.78;40.90;98942.59;5044056;28;20226;-83
2022/08/20 11:17:46;;;;;;;1.38;1.02;;;;;;;30.79;40.44;98939.47;5036507;28;20233;-83
2022/08/20 11:20:15;;;;;;;0.90;0.90;;;;;;;30.10;42.22;98951.59;5026964;28;20225;-82
2022/08/20 11:22:42;;;;;;;0.88;0.88;;;;;;;29.65;43.35;98942.00;5032993;28;20218;-81
2022/08/20 11:25:10;;;;;;;0.80;0.80;;;;;;;30.04;43.12;98942.03;5034453;28;20234;-83
2022/08/20 11:27:40;;;;;;;1.20;0.80;;;;;;;29.77;42.34;98935.53;5027789;28;20234;-82
2022/08/20 11:30:09;;;;;;;0.90;0.90;;;;;;;30.05;42.28;98944.41;5033104;28;20642;-83
2022/08/20 11:34:52;;;;;;;1.10;1.10;;;;;;;29.19;44.12;98952.00;5064999;28;21183;-82
2022/08/20 11:37:21;;;;;;;1.52;1.10;;;;;;;28.13;46.52;98941.03;5069847;28;20233;-84
2022/08/20 11:39:47;;;;;;;1.35;1.25;;;;;;;28.00;47.65;98942.97;5043697;28;20245;-88
2022/08/20 11:42:14;;;;;;;1.45;1.35;;;;;;;27.81;48.02;98942.06;5030613;28;20268;-90
2022/08/20 11:44:41;;;;;;;1.10;1.10;;;;;;;27.29;49.47;98950.28;5027975;28;20320;-88
2022/08/20 11:47:18;;;;;;;1.20;1.20;;;;;;;27.04;50.92;98944.00;5032222;28;20237;-85
2022/08/20 11:49:45;;;;;;;0.82;0.80;;;;;;;27.17;51.67;98946.41;5024970;28;20232;-86
2022/08/20 11:52:12;;;;;;;0.63;0.63;;;;;;;27.29;52.70;98959.34;5048562;28;20241;-87